Time;durP1;ratioP1;P1;durP2;ratioP2;P2;SDS_P1;SDS_P2;PMS_P1;PMS_P2;Temp;Humidity;BMP_temperature;BMP_pressure;BME280_temperature;BME280_humidity;BME280_pressure;Samples;Min_cycle;Max_cycle;Signal;HPM_P1;HPM_P2
2024/03/12 00:00:40;;;;;;;28.13;17.30;;;;;;;;;;5111302;28;20193;-82
2024/03/12 00:03:09;;;;;;;29.37;16.47;;;;;;;;;;5111339;28;20197;-82
2024/03/12 00:05:37;;;;;;;24.97;16.07;;;;;;;;;;5111049;28;20296;-81
2024/03/12 00:08:05;;;;;;;24.67;15.67;;;;;;;;;;5111478;28;20236;-81
2024/03/12 00:10:32;;;;;;;25.50;16.30;;;;;;;;;;5111482;28;20578;-81
2024/03/12 00:13:01;;;;;;;25.27;15.23;;;;;;;;;;5111493;28;20237;-81
2024/03/12 00:15:31;;;;;;;26.40;16.07;;;;;;;;;;5111009;28;20233;-81
2024/03/12 00:18:04;;;;;;;26.73;17.13;;;;;;;;;;5110788;28;20198;-81
2024/03/12 00:20:33;;;;;;;29.87;16.83;;;;;;;;;;5111265;28;20233;-81
2024/03/12 00:23:01;;;;;;;27.17;17.33;;;;;;;;;;5093440;28;20196;-81
2024/03/12 00:25:30;;;;;;;28.50;16.93;;;;;;;;;;5111730;28;20277;-81
2024/03/12 00:27:58;;;;;;;27.70;17.20;;;;;;;;;;5111095;28;20248;-81
2024/03/12 00:30:27;;;;;;;25.83;16.37;;;;;;;;;;5110967;28;20193;-82
2024/03/12 00:32:56;;;;;;;24.23;15.87;;;;;;;;;;5110790;28;20208;-81
2024/03/12 00:35:24;;;;;;;24.00;15.67;;;;;;;;;;5111352;28;20244;-81
2024/03/12 00:37:52;;;;;;;23.47;15.40;;;;;;;;;;5111920;28;20193;-82
2024/03/12 00:40:22;;;;;;;27.27;15.93;;;;;;;;;;5114918;28;20740;-81
2024/03/12 00:42:51;;;;;;;26.40;15.20;;;;;;;;;;5115260;28;20193;-81
2024/03/12 00:45:25;;;;;;;25.40;15.40;;;;;;;;;;5115259;28;20288;-82
2024/03/12 00:47:53;;;;;;;23.60;14.43;;;;;;;;;;5114531;28;20671;-81
2024/03/12 00:50:22;;;;;;;24.37;15.83;;;;;;;;;;5115136;28;20289;-81
2024/03/12 00:52:52;;;;;;;25.90;14.27;;;;;;;;;;5114894;28;20201;-82
2024/03/12 00:55:20;;;;;;;22.73;14.50;;;;;;;;;;5114794;28;20302;-81
2024/03/12 00:57:48;;;;;;;22.67;14.10;;;;;;;;;;5114603;28;20671;-81
2024/03/12 01:00:25;;;;;;;23.83;14.47;;;;;;;;;;5114377;28;20202;-81
2024/03/12 01:02:53;;;;;;;20.67;14.30;;;;;;;;;;5114330;28;20326;-81
2024/03/12 01:05:24;;;;;;;21.67;14.00;;;;;;;;;;5114822;28;20202;-81
2024/03/12 01:07:53;;;;;;;22.83;15.43;;;;;;;;;;5088266;28;20696;-81
2024/03/12 01:10:21;;;;;;;24.33;14.13;;;;;;;;;;5073834;28;20211;-81
2024/03/12 01:12:49;;;;;;;19.27;14.27;;;;;;;;;;5081316;28;20206;-81
2024/03/12 01:15:18;;;;;;;26.57;15.43;;;;;;;;;;5093569;28;20226;-81
2024/03/12 01:17:45;;;;;;;26.60;15.77;;;;;;;;;;5093910;28;20581;-81
2024/03/12 01:20:16;;;;;;;23.70;14.87;;;;;;;;;;5094102;28;20194;-82
2024/03/12 01:22:45;;;;;;;26.13;14.23;;;;;;;;;;5093989;28;20239;-81
2024/03/12 01:25:12;;;;;;;22.67;13.97;;;;;;;;;;5093843;28;20283;-81
2024/03/12 01:27:41;;;;;;;23.50;14.07;;;;;;;;;;5094080;28;20190;-81
2024/03/12 01:30:14;;;;;;;22.07;13.87;;;;;;;;;;5093944;28;20194;-81
2024/03/12 01:32:41;;;;;;;21.33;13.03;;;;;;;;;;5093296;28;20206;-80
2024/03/12 01:35:09;;;;;;;22.30;12.97;;;;;;;;;;5093323;28;20258;-82
2024/03/12 01:37:36;;;;;;;20.40;13.77;;;;;;;;;;5093517;28;20297;-81
2024/03/12 01:40:19;;;;;;;19.97;12.80;;;;;;;;;;5093310;28;20199;-81
2024/03/12 01:42:48;;;;;;;22.47;13.33;;;;;;;;;;5093371;28;20187;-82
2024/03/12 01:45:16;;;;;;;22.37;13.57;;;;;;;;;;5093167;28;20259;-81
2024/03/12 01:47:45;;;;;;;20.90;13.83;;;;;;;;;;5093384;28;20202;-81
2024/03/12 01:50:12;;;;;;;22.90;13.73;;;;;;;;;;5092914;28;20202;-81
2024/03/12 01:52:40;;;;;;;22.70;13.40;;;;;;;;;;5093890;28;20198;-81
2024/03/12 01:55:10;;;;;;;20.10;13.40;;;;;;;;;;5093029;28;20237;-81
2024/03/12 01:57:40;;;;;;;21.70;13.23;;;;;;;;;;5093327;28;20233;-80
2024/03/12 02:00:10;;;;;;;21.67;13.60;;;;;;;;;;5092604;28;20226;-81
2024/03/12 02:02:38;;;;;;;24.20;13.57;;;;;;;;;;5092868;28;20198;-81
2024/03/12 02:05:06;;;;;;;21.67;12.73;;;;;;;;;;5093183;28;20281;-81
2024/03/12 02:07:34;;;;;;;18.57;13.13;;;;;;;;;;5092896;28;20194;-81
2024/03/12 02:10:01;;;;;;;21.40;13.77;;;;;;;;;;5093363;28;20209;-81
2024/03/12 02:12:30;;;;;;;23.63;12.67;;;;;;;;;;5079378;28;20216;-81
2024/03/12 02:14:57;;;;;;;22.40;13.43;;;;;;;;;;5112580;28;20707;-81
2024/03/12 02:17:25;;;;;;;21.10;12.97;;;;;;;;;;5113129;28;20228;-81
2024/03/12 02:19:52;;;;;;;21.50;13.80;;;;;;;;;;5113667;28;20226;-81
2024/03/12 02:22:19;;;;;;;22.03;13.23;;;;;;;;;;5113094;28;20221;-82
2024/03/12 02:24:50;;;;;;;18.63;12.87;;;;;;;;;;5112829;28;20205;-81
2024/03/12 02:27:17;;;;;;;19.80;13.00;;;;;;;;;;5113198;28;20258;-81
2024/03/12 02:29:45;;;;;;;20.97;12.97;;;;;;;;;;5112974;28;20194;-81
2024/03/12 02:32:12;;;;;;;21.53;12.90;;;;;;;;;;5112863;28;20194;-81
2024/03/12 02:34:39;;;;;;;22.50;12.97;;;;;;;;;;5113329;28;20834;-81
2024/03/12 02:37:07;;;;;;;22.20;13.60;;;;;;;;;;5112610;28;20229;-81
2024/03/12 02:39:36;;;;;;;20.13;12.30;;;;;;;;;;5112954;28;20255;-80
2024/03/12 02:42:06;;;;;;;21.77;13.03;;;;;;;;;;5112636;28;20205;-82
2024/03/12 02:44:34;;;;;;;20.80;13.03;;;;;;;;;;5112662;28;20877;-81
2024/03/12 02:47:02;;;;;;;20.83;11.77;;;;;;;;;;5112488;28;20204;-80
2024/03/12 02:49:30;;;;;;;19.17;12.53;;;;;;;;;;5112646;28;20266;-81
2024/03/12 02:51:57;;;;;;;21.27;11.97;;;;;;;;;;5112191;28;20647;-81
2024/03/12 02:54:26;;;;;;;17.50;11.10;;;;;;;;;;5112241;28;20261;-81
2024/03/12 02:56:53;;;;;;;23.67;11.93;;;;;;;;;;5112460;28;20677;-81
2024/03/12 02:59:22;;;;;;;18.13;11.53;;;;;;;;;;5111792;28;20216;-81
2024/03/12 03:01:49;;;;;;;17.10;11.13;;;;;;;;;;5111267;28;20594;-81
2024/03/12 03:04:16;;;;;;;16.73;11.70;;;;;;;;;;5086484;28;20241;-80
2024/03/12 03:06:44;;;;;;;20.90;11.47;;;;;;;;;;5072719;28;20288;-81
2024/03/12 03:09:12;;;;;;;18.87;11.90;;;;;;;;;;5072115;28;20243;-81
2024/03/12 03:11:39;;;;;;;23.97;12.50;;;;;;;;;;5071572;28;20199;-82
2024/03/12 03:14:07;;;;;;;19.57;11.23;;;;;;;;;;5089552;28;20250;-81
2024/03/12 03:16:35;;;;;;;18.73;11.43;;;;;;;;;;5091829;28;20225;-81
2024/03/12 03:19:02;;;;;;;18.03;11.80;;;;;;;;;;5091888;28;20222;-80
2024/03/12 03:21:30;;;;;;;19.87;12.00;;;;;;;;;;5091398;28;20194;-81
2024/03/12 03:23:58;;;;;;;20.37;12.77;;;;;;;;;;5091763;28;20631;-81
2024/03/12 03:26:25;;;;;;;27.27;12.40;;;;;;;;;;5091479;28;20255;-81
2024/03/12 03:28:52;;;;;;;18.33;12.00;;;;;;;;;;5091637;28;20222;-82
2024/03/12 03:31:20;;;;;;;25.53;13.43;;;;;;;;;;5091522;28;20226;-82
2024/03/12 03:33:50;;;;;;;21.53;13.03;;;;;;;;;;5091412;28;20203;-80
2024/03/12 03:36:18;;;;;;;21.60;12.70;;;;;;;;;;5091300;28;20193;-80
2024/03/12 03:38:45;;;;;;;24.30;12.67;;;;;;;;;;5071559;28;20231;-81
2024/03/12 03:41:12;;;;;;;25.37;13.50;;;;;;;;;;5070716;28;20227;-80
2024/03/12 03:43:42;;;;;;;28.00;13.73;;;;;;;;;;5070862;28;20231;-81
2024/03/12 03:46:10;;;;;;;20.63;13.40;;;;;;;;;;5071747;28;20276;-81
2024/03/12 03:48:37;;;;;;;28.07;13.43;;;;;;;;;;5071198;28;20234;-80
2024/03/12 03:51:06;;;;;;;22.67;12.63;;;;;;;;;;5071345;28;20226;-82
2024/03/12 03:53:33;;;;;;;24.83;11.70;;;;;;;;;;5071068;28;20235;-81
2024/03/12 03:56:02;;;;;;;21.87;11.87;;;;;;;;;;5070061;28;20334;-80
2024/03/12 03:58:30;;;;;;;21.73;11.80;;;;;;;;;;5070965;28;20199;-81
2024/03/12 04:00:57;;;;;;;17.73;11.13;;;;;;;;;;5071547;28;20201;-82
2024/03/12 04:03:25;;;;;;;20.87;11.33;;;;;;;;;;5071033;28;20231;-81
2024/03/12 04:05:55;;;;;;;18.97;11.20;;;;;;;;;;5071209;28;20214;-81
2024/03/12 04:08:23;;;;;;;23.07;11.50;;;;;;;;;;5071006;28;20191;-82
2024/03/12 04:10:50;;;;;;;22.10;11.23;;;;;;;;;;5070502;28;20219;-81
2024/03/12 04:13:18;;;;;;;22.13;10.37;;;;;;;;;;5084048;28;20226;-81
2024/03/12 04:15:47;;;;;;;19.07;10.83;;;;;;;;;;5095220;28;20320;-81
2024/03/12 04:18:18;;;;;;;17.40;10.00;;;;;;;;;;5095297;28;20194;-81
2024/03/12 04:20:47;;;;;;;19.40;11.37;;;;;;;;;;5095004;28;20561;-81
2024/03/12 04:23:14;;;;;;;17.73;10.27;;;;;;;;;;5074576;28;20203;-81
2024/03/12 04:25:43;;;;;;;18.07;10.53;;;;;;;;;;5074414;28;20287;-81
2024/03/12 04:28:15;;;;;;;16.27;10.50;;;;;;;;;;5074704;28;20225;-81
2024/03/12 04:30:43;;;;;;;21.23;10.70;;;;;;;;;;5074825;28;20229;-81
2024/03/12 04:33:10;;;;;;;22.90;10.27;;;;;;;;;;5074324;28;20900;-82
2024/03/12 04:35:38;;;;;;;19.90;10.40;;;;;;;;;;5074456;28;20277;-81
2024/03/12 04:38:07;;;;;;;14.87;9.47;;;;;;;;;;5074465;28;20233;-81
2024/03/12 04:40:36;;;;;;;19.97;9.90;;;;;;;;;;5074264;28;20256;-81
2024/03/12 04:43:04;;;;;;;19.20;10.50;;;;;;;;;;5074192;28;20295;-80
2024/03/12 04:45:32;;;;;;;18.87;10.13;;;;;;;;;;5074529;28;20198;-81
2024/03/12 04:47:59;;;;;;;15.80;9.93;;;;;;;;;;5074020;28;20234;-81
2024/03/12 04:50:26;;;;;;;17.63;9.83;;;;;;;;;;5074318;28;20222;-81
2024/03/12 04:52:53;;;;;;;17.27;10.17;;;;;;;;;;5074098;28;20642;-81
2024/03/12 04:55:20;;;;;;;18.17;9.90;;;;;;;;;;5072417;28;20262;-81
2024/03/12 04:57:48;;;;;;;19.60;9.40;;;;;;;;;;5082776;28;20621;-81
2024/03/12 05:00:19;;;;;;;24.67;10.27;;;;;;;;;;5073207;28;20682;-81
2024/03/12 05:02:47;;;;;;;12.87;8.87;;;;;;;;;;5073137;28;20199;-81
2024/03/12 05:05:17;;;;;;;21.77;9.37;;;;;;;;;;5072709;28;20205;-81
2024/03/12 05:07:45;;;;;;;16.90;9.27;;;;;;;;;;5085326;28;20669;-81
2024/03/12 05:10:12;;;;;;;20.70;9.73;;;;;;;;;;5092554;28;20201;-82
2024/03/12 05:12:40;;;;;;;15.97;8.67;;;;;;;;;;5092746;28;20288;-81
2024/03/12 05:15:09;;;;;;;18.43;9.17;;;;;;;;;;5092696;28;20225;-82
2024/03/12 05:17:37;;;;;;;18.83;8.73;;;;;;;;;;5092998;28;20201;-82
2024/03/12 05:20:06;;;;;;;18.97;8.83;;;;;;;;;;5092871;28;20230;-81
2024/03/12 05:22:33;;;;;;;16.87;8.63;;;;;;;;;;5092504;28;20209;-81
2024/03/12 05:25:01;;;;;;;18.63;8.93;;;;;;;;;;5092104;28;20603;-81
2024/03/12 05:27:35;;;;;;;19.70;8.43;;;;;;;;;;5093062;28;20197;-81
2024/03/12 05:30:10;;;;;;;16.07;8.50;;;;;;;;;;5093290;28;20197;-81
2024/03/12 05:32:43;;;;;;;20.90;9.27;;;;;;;;;;5092670;28;20190;-81
2024/03/12 05:35:17;;;;;;;21.77;8.60;;;;;;;;;;5092631;28;20715;-81
2024/03/12 05:38:01;;;;;;;19.07;8.57;;;;;;;;;;5092251;28;20571;-80
2024/03/12 05:40:40;;;;;;;15.70;8.33;;;;;;;;;;5092603;28;20583;-81
2024/03/12 05:48:38;;;;;;;18.67;8.40;;;;;;;;;;5092057;28;20229;-82
2024/03/12 05:51:07;;;;;;;18.27;8.13;;;;;;;;;;5092374;28;20201;-81
2024/03/12 05:53:34;;;;;;;19.53;8.27;;;;;;;;;;5092087;28;20758;-81
2024/03/12 05:56:03;;;;;;;24.23;9.60;;;;;;;;;;5043995;28;872252;-81
2024/03/12 05:58:31;;;;;;;17.97;7.87;;;;;;;;;;5093913;28;20197;-81
2024/03/12 06:00:58;;;;;;;15.77;8.43;;;;;;;;;;5092981;28;20206;-81
2024/03/12 06:03:26;;;;;;;18.37;8.60;;;;;;;;;;5092916;28;20208;-80
2024/03/12 06:05:54;;;;;;;15.63;7.57;;;;;;;;;;5075318;28;20233;-80
2024/03/12 06:08:24;;;;;;;20.83;7.70;;;;;;;;;;5083267;28;20674;-80
2024/03/12 06:10:51;;;;;;;16.90;7.60;;;;;;;;;;5076775;28;20268;-79
2024/03/12 06:13:20;;;;;;;17.17;7.83;;;;;;;;;;5096252;28;20193;-79
2024/03/12 06:15:47;;;;;;;16.90;7.47;;;;;;;;;;5113437;28;20225;-80
2024/03/12 06:18:14;;;;;;;21.57;7.20;;;;;;;;;;5113566;28;20198;-80
2024/03/12 06:20:45;;;;;;;17.00;7.43;;;;;;;;;;5113039;28;20258;-80
2024/03/12 06:23:14;;;;;;;18.17;7.70;;;;;;;;;;5112681;28;20229;-79
2024/03/12 06:25:41;;;;;;;21.20;7.40;;;;;;;;;;5113241;28;20202;-80
2024/03/12 06:28:11;;;;;;;18.77;7.57;;;;;;;;;;5113294;28;20200;-80
2024/03/12 06:30:38;;;;;;;16.90;7.10;;;;;;;;;;5112840;28;20284;-80
2024/03/12 06:33:06;;;;;;;22.73;7.67;;;;;;;;;;5112766;28;20676;-80
2024/03/12 06:35:33;;;;;;;16.40;7.30;;;;;;;;;;5112201;28;20221;-81
2024/03/12 06:38:01;;;;;;;17.10;6.50;;;;;;;;;;5113082;28;20217;-80
2024/03/12 06:40:29;;;;;;;19.27;6.50;;;;;;;;;;5112466;28;20296;-80
2024/03/12 06:42:59;;;;;;;18.53;7.70;;;;;;;;;;5113122;28;20257;-80
2024/03/12 06:45:26;;;;;;;22.93;7.63;;;;;;;;;;5093729;28;20201;-80
2024/03/12 06:47:55;;;;;;;15.07;6.67;;;;;;;;;;5104434;28;20229;-81
2024/03/12 06:50:25;;;;;;;15.57;6.43;;;;;;;;;;5112673;28;20213;-87
2024/03/12 06:52:53;;;;;;;21.53;7.63;;;;;;;;;;5114633;28;20277;-87
2024/03/12 06:55:23;;;;;;;17.57;7.70;;;;;;;;;;5113515;28;20235;-86
2024/03/12 06:57:54;;;;;;;16.93;7.07;;;;;;;;;;5113829;28;20886;-87
2024/03/12 07:00:30;;;;;;;17.33;8.00;;;;;;;;;;5114109;28;20272;-87
2024/03/12 07:02:57;;;;;;;22.50;7.37;;;;;;;;;;5113643;28;20675;-86
2024/03/12 07:05:29;;;;;;;17.03;7.80;;;;;;;;;;5113684;28;20209;-87
2024/03/12 07:07:56;;;;;;;17.13;7.30;;;;;;;;;;5114018;28;20198;-87
2024/03/12 07:10:25;;;;;;;18.63;7.00;;;;;;;;;;5113758;28;20245;-87
2024/03/12 07:12:53;;;;;;;15.93;7.33;;;;;;;;;;5113713;28;20807;-87
2024/03/12 07:15:21;;;;;;;18.90;7.33;;;;;;;;;;5113855;28;20810;-87
2024/03/12 07:17:48;;;;;;;17.33;6.77;;;;;;;;;;5113702;28;20660;-85
2024/03/12 07:20:16;;;;;;;20.43;6.77;;;;;;;;;;5113122;28;20232;-87
2024/03/12 07:22:43;;;;;;;21.33;7.13;;;;;;;;;;5113794;28;20221;-87
2024/03/12 07:25:15;;;;;;;15.90;7.07;;;;;;;;;;5113357;28;20220;-87
2024/03/12 07:27:44;;;;;;;17.70;6.20;;;;;;;;;;5113173;28;20616;-86
2024/03/12 07:30:13;;;;;;;18.10;6.30;;;;;;;;;;5113429;28;20289;-85
2024/03/12 07:32:40;;;;;;;15.90;5.90;;;;;;;;;;5113521;28;20318;-86
2024/03/12 07:35:09;;;;;;;19.50;6.03;;;;;;;;;;5113004;28;20217;-87
2024/03/12 07:37:38;;;;;;;21.00;6.47;;;;;;;;;;5113377;28;20272;-87
2024/03/12 07:40:08;;;;;;;13.67;5.27;;;;;;;;;;5113272;28;20242;-88
2024/03/12 07:42:35;;;;;;;12.97;5.60;;;;;;;;;;5113237;28;20185;-86
2024/03/12 07:45:04;;;;;;;16.53;5.73;;;;;;;;;;5113664;28;20217;-87
2024/03/12 07:47:33;;;;;;;15.70;5.93;;;;;;;;;;5112432;28;20201;-87
2024/03/12 07:50:02;;;;;;;16.50;6.40;;;;;;;;;;5113083;28;20256;-87
2024/03/12 07:52:29;;;;;;;15.90;5.80;;;;;;;;;;5112930;28;20198;-87
2024/03/12 07:54:56;;;;;;;17.47;5.70;;;;;;;;;;5112842;28;20264;-87
2024/03/12 07:57:24;;;;;;;19.67;5.93;;;;;;;;;;5113525;28;20667;-88
2024/03/12 07:59:52;;;;;;;16.03;5.07;;;;;;;;;;5113024;28;20193;-87
2024/03/12 08:02:21;;;;;;;14.80;5.87;;;;;;;;;;5112995;28;20659;-86
2024/03/12 08:04:50;;;;;;;19.87;5.63;;;;;;;;;;5113330;28;20217;-87
2024/03/12 08:07:19;;;;;;;16.10;5.60;;;;;;;;;;5112950;28;20194;-87
2024/03/12 08:09:48;;;;;;;13.83;5.43;;;;;;;;;;5112889;28;20203;-87
2024/03/12 08:12:16;;;;;;;14.37;5.43;;;;;;;;;;5110220;28;20335;-87
2024/03/12 08:14:44;;;;;;;14.70;5.47;;;;;;;;;;5092825;28;20201;-86
2024/03/12 08:17:13;;;;;;;22.20;5.87;;;;;;;;;;5091864;28;20235;-87
2024/03/12 08:19:40;;;;;;;18.93;6.33;;;;;;;;;;5092867;28;20273;-87
2024/03/12 08:22:09;;;;;;;13.97;5.10;;;;;;;;;;5092529;28;20290;-87
2024/03/12 08:24:37;;;;;;;17.50;5.50;;;;;;;;;;5092099;28;20660;-87
2024/03/12 08:27:04;;;;;;;18.00;5.17;;;;;;;;;;5092997;28;20189;-87
2024/03/12 08:29:32;;;;;;;22.53;5.93;;;;;;;;;;5092470;28;20218;-86
2024/03/12 08:31:59;;;;;;;16.37;5.00;;;;;;;;;;5091799;28;20282;-87
2024/03/12 08:34:26;;;;;;;21.17;5.43;;;;;;;;;;5091917;28;20281;-86
2024/03/12 08:36:55;;;;;;;15.80;4.03;;;;;;;;;;5091891;28;20807;-87
2024/03/12 08:39:27;;;;;;;15.93;4.90;;;;;;;;;;5091829;28;20225;-86
2024/03/12 08:41:55;;;;;;;14.70;4.70;;;;;;;;;;5091914;28;20839;-86
2024/03/12 08:44:23;;;;;;;11.67;4.60;;;;;;;;;;5092147;28;20194;-86
2024/03/12 08:46:51;;;;;;;13.27;4.50;;;;;;;;;;5091479;28;20194;-87
2024/03/12 08:49:18;;;;;;;17.97;4.67;;;;;;;;;;5092216;28;20202;-87
2024/03/12 08:51:45;;;;;;;15.43;4.40;;;;;;;;;;5091927;28;20222;-86
2024/03/12 08:54:13;;;;;;;10.53;4.17;;;;;;;;;;5091638;28;20322;-87
2024/03/12 08:56:42;;;;;;;16.33;4.70;;;;;;;;;;5092022;28;20264;-87
2024/03/12 08:59:15;;;;;;;11.30;4.93;;;;;;;;;;5093582;28;20198;-87
2024/03/12 09:01:44;;;;;;;15.40;4.97;;;;;;;;;;5095564;28;20296;-86
2024/03/12 09:04:11;;;;;;;12.37;4.53;;;;;;;;;;5095459;28;20683;-87
2024/03/12 09:06:39;;;;;;;12.73;5.13;;;;;;;;;;5095350;28;20294;-87
2024/03/12 09:09:07;;;;;;;10.97;4.10;;;;;;;;;;5095342;28;20201;-86
2024/03/12 09:11:34;;;;;;;16.43;4.07;;;;;;;;;;5095338;28;20676;-86
2024/03/12 09:14:04;;;;;;;13.73;3.97;;;;;;;;;;5095214;28;20229;-87
2024/03/12 09:16:32;;;;;;;15.73;5.40;;;;;;;;;;5094737;28;20218;-85
2024/03/12 09:19:00;;;;;;;16.40;5.07;;;;;;;;;;5095301;28;20218;-87
2024/03/12 09:21:27;;;;;;;12.63;4.23;;;;;;;;;;5095406;28;20206;-87
2024/03/12 09:23:55;;;;;;;11.50;3.90;;;;;;;;;;5095069;28;20285;-86
2024/03/12 09:26:22;;;;;;;9.33;3.43;;;;;;;;;;5095168;28;20629;-87
2024/03/12 09:28:50;;;;;;;16.00;6.67;;;;;;;;;;5095312;28;20207;-87
2024/03/12 09:31:19;;;;;;;13.33;4.70;;;;;;;;;;5077170;28;20205;-87
2024/03/12 09:33:46;;;;;;;8.23;4.20;;;;;;;;;;5095166;28;20202;-88
2024/03/12 09:36:14;;;;;;;12.30;4.67;;;;;;;;;;5095048;28;20254;-86
2024/03/12 09:38:43;;;;;;;10.50;3.90;;;;;;;;;;5094956;28;20680;-87
2024/03/12 09:41:12;;;;;;;11.10;3.90;;;;;;;;;;5094986;28;20615;-87
2024/03/12 09:43:39;;;;;;;15.20;3.90;;;;;;;;;;5095021;28;20218;-86
2024/03/12 09:46:07;;;;;;;10.07;3.90;;;;;;;;;;5094897;28;20195;-86
2024/03/12 09:48:36;;;;;;;14.00;4.30;;;;;;;;;;5094672;28;20221;-85
2024/03/12 09:51:05;;;;;;;12.23;4.40;;;;;;;;;;5094836;28;20194;-87
2024/03/12 09:53:33;;;;;;;11.33;4.53;;;;;;;;;;5095610;28;20187;-87
2024/03/12 09:56:05;;;;;;;11.50;4.53;;;;;;;;;;5094585;28;20727;-88
2024/03/12 09:58:33;;;;;;;12.10;4.33;;;;;;;;;;5094773;28;20202;-87
2024/03/12 10:01:01;;;;;;;11.40;4.23;;;;;;;;;;5094821;28;20654;-88
2024/03/12 10:03:29;;;;;;;13.70;4.27;;;;;;;;;;5094262;28;20226;-87
2024/03/12 10:05:58;;;;;;;10.57;4.23;;;;;;;;;;5094244;28;20198;-85
2024/03/12 10:08:28;;;;;;;13.37;4.60;;;;;;;;;;5094524;28;20190;-87
2024/03/12 10:10:55;;;;;;;10.00;3.67;;;;;;;;;;5093081;28;20199;-86
2024/03/12 10:13:23;;;;;;;9.17;4.50;;;;;;;;;;5063698;28;20206;-87
2024/03/12 10:15:50;;;;;;;9.80;4.43;;;;;;;;;;5074357;28;20191;-87
2024/03/12 10:18:19;;;;;;;13.67;4.50;;;;;;;;;;5074257;28;20325;-87
2024/03/12 10:20:49;;;;;;;15.70;4.40;;;;;;;;;;5074167;28;20203;-87
2024/03/12 10:23:18;;;;;;;11.50;4.33;;;;;;;;;;5073551;28;20206;-87
2024/03/12 10:25:46;;;;;;;14.40;4.70;;;;;;;;;;5073181;28;20229;-86
2024/03/12 10:28:18;;;;;;;11.83;3.77;;;;;;;;;;5074076;28;20218;-87
2024/03/12 10:30:46;;;;;;;14.77;4.10;;;;;;;;;;5073836;28;20214;-87
2024/03/12 10:33:16;;;;;;;11.60;3.93;;;;;;;;;;5073780;28;20191;-86
2024/03/12 10:35:45;;;;;;;13.23;3.57;;;;;;;;;;5073648;28;20201;-87
2024/03/12 10:38:13;;;;;;;13.03;3.70;;;;;;;;;;5073458;28;20233;-87
2024/03/12 10:40:42;;;;;;;14.00;3.60;;;;;;;;;;5073813;28;20589;-86
2024/03/12 10:43:11;;;;;;;13.53;3.60;;;;;;;;;;5073145;28;20273;-87
2024/03/12 10:45:39;;;;;;;16.03;4.10;;;;;;;;;;5073660;28;20187;-88
2024/03/12 10:48:10;;;;;;;15.33;4.20;;;;;;;;;;5073504;28;20679;-88
2024/03/12 10:50:42;;;;;;;14.07;3.80;;;;;;;;;;5073650;28;20241;-87
2024/03/12 10:53:11;;;;;;;11.53;3.70;;;;;;;;;;5073251;28;20207;-88
2024/03/12 10:55:38;;;;;;;14.27;3.47;;;;;;;;;;5073161;28;20277;-88
2024/03/12 10:58:08;;;;;;;15.90;6.77;;;;;;;;;;5072696;28;20778;-86
2024/03/12 11:00:39;;;;;;;11.63;6.07;;;;;;;;;;5073278;28;20214;-88
2024/03/12 11:03:08;;;;;;;10.87;4.17;;;;;;;;;;5073445;28;20191;-88
2024/03/12 11:05:38;;;;;;;12.60;2.90;;;;;;;;;;5073405;28;20279;-88
2024/03/12 11:08:09;;;;;;;10.33;2.90;;;;;;;;;;5073344;28;20278;-88
2024/03/12 11:10:37;;;;;;;12.57;3.50;;;;;;;;;;5072889;28;20209;-87
2024/03/12 11:13:05;;;;;;;11.50;2.80;;;;;;;;;;5073496;28;20227;-86
2024/03/12 11:15:35;;;;;;;5.90;2.03;;;;;;;;;;5073129;28;20199;-88
2024/03/12 11:18:03;;;;;;;10.38;2.47;;;;;;;;;;5072777;28;20273;-87
2024/03/12 11:20:30;;;;;;;14.95;3.00;;;;;;;;;;5073256;28;20638;-88
2024/03/12 11:23:00;;;;;;;16.05;4.55;;;;;;;;;;5072594;28;20234;-87
2024/03/12 11:25:34;;;;;;;12.63;2.95;;;;;;;;;;5072250;28;20676;-86
2024/03/12 11:28:23;;;;;;;9.82;2.50;;;;;;;;;;5073267;28;20256;-87
2024/03/12 11:31:01;;;;;;;6.90;3.03;;;;;;;;;;5054718;28;20639;-88
2024/03/12 11:33:42;;;;;;;10.00;2.53;;;;;;;;;;5073196;28;20249;-88
2024/03/12 11:36:10;;;;;;;8.70;3.00;;;;;;;;;;5072814;28;20741;-89
2024/03/12 11:38:37;;;;;;;7.38;2.20;;;;;;;;;;5072533;28;20768;-89
2024/03/12 11:41:05;;;;;;;8.60;2.08;;;;;;;;;;5072964;28;20614;-88
2024/03/12 11:43:37;;;;;;;9.52;3.42;;;;;;;;;;5073390;28;20731;-88
2024/03/12 11:46:07;;;;;;;7.43;2.72;;;;;;;;;;5072778;28;20607;-87
2024/03/12 11:48:35;;;;;;;13.85;3.10;;;;;;;;;;5073166;28;20202;-89
2024/03/12 11:51:04;;;;;;;11.57;2.42;;;;;;;;;;5072822;28;20226;-88
2024/03/12 11:53:32;;;;;;;9.95;2.33;;;;;;;;;;5073070;28;20249;-88
2024/03/12 11:56:02;;;;;;;11.25;2.22;;;;;;;;;;5072385;28;20325;-88
2024/03/12 11:58:31;;;;;;;12.20;2.92;;;;;;;;;;5072903;28;20650;-87
2024/03/12 12:00:59;;;;;;;11.98;2.30;;;;;;;;;;5072820;28;20191;-88
2024/03/12 12:03:27;;;;;;;9.77;2.05;;;;;;;;;;5072655;28;20218;-89
2024/03/12 12:05:55;;;;;;;9.30;2.13;;;;;;;;;;5072761;28;20642;-87
2024/03/12 12:08:23;;;;;;;9.23;2.30;;;;;;;;;;5072275;28;20195;-89
2024/03/12 12:11:03;;;;;;;13.18;3.13;;;;;;;;;;5072816;28;20203;-88
2024/03/12 12:13:32;;;;;;;9.25;3.03;;;;;;;;;;5072789;28;20190;-88
2024/03/12 12:16:00;;;;;;;9.93;2.60;;;;;;;;;;5072561;28;20661;-86
2024/03/12 12:18:30;;;;;;;10.40;2.25;;;;;;;;;;5072953;28;20299;-88
2024/03/12 12:20:59;;;;;;;10.80;1.90;;;;;;;;;;5072654;28;20781;-89
2024/03/12 12:23:27;;;;;;;10.38;2.33;;;;;;;;;;5071854;28;20202;-87
2024/03/12 12:25:55;;;;;;;11.95;2.60;;;;;;;;;;5072379;28;20199;-88
2024/03/12 12:28:25;;;;;;;9.68;2.25;;;;;;;;;;5072416;28;20636;-87
2024/03/12 12:30:54;;;;;;;10.88;2.47;;;;;;;;;;5072576;28;20191;-87
2024/03/12 12:33:23;;;;;;;10.80;2.38;;;;;;;;;;5072527;28;20711;-88
2024/03/12 12:35:54;;;;;;;9.32;1.80;;;;;;;;;;5076004;28;20653;-86
2024/03/12 12:38:23;;;;;;;10.48;2.58;;;;;;;;;;5075859;28;20226;-88
2024/03/12 12:40:53;;;;;;;13.20;2.58;;;;;;;;;;5076443;28;20242;-87
2024/03/12 12:43:21;;;;;;;12.52;2.47;;;;;;;;;;5076382;28;20191;-90
2024/03/12 12:45:49;;;;;;;8.38;2.28;;;;;;;;;;5076476;28;20287;-87
2024/03/12 12:48:17;;;;;;;10.80;1.90;;;;;;;;;;5076318;28;20187;-88
2024/03/12 12:50:47;;;;;;;9.48;2.22;;;;;;;;;;5075499;28;20764;-88
2024/03/12 12:53:16;;;;;;;13.10;2.88;;;;;;;;;;5075921;28;20673;-89
2024/03/12 12:55:44;;;;;;;7.45;2.50;;;;;;;;;;5075986;28;20578;-89
2024/03/12 12:58:11;;;;;;;9.20;1.92;;;;;;;;;;5076061;28;20566;-88
2024/03/12 13:00:39;;;;;;;9.45;2.00;;;;;;;;;;5076074;28;20219;-88
2024/03/12 13:03:17;;;;;;;13.57;2.65;;;;;;;;;;5075691;28;20195;-88
2024/03/12 13:05:45;;;;;;;10.45;2.38;;;;;;;;;;5075753;28;20623;-89
2024/03/12 13:08:24;;;;;;;5.10;1.40;;;;;;;;;;5075723;28;20214;-89
2024/03/12 13:10:57;;;;;;;9.15;2.17;;;;;;;;;;5075849;28;20672;-88
2024/03/12 13:13:25;;;;;;;9.13;1.80;;;;;;;;;;5088602;28;20288;-88
2024/03/12 13:15:52;;;;;;;8.70;2.08;;;;;;;;;;5096001;28;20202;-89
2024/03/12 13:18:20;;;;;;;9.70;2.13;;;;;;;;;;5095479;28;20312;-89
2024/03/12 13:20:49;;;;;;;14.82;2.47;;;;;;;;;;5095925;28;20198;-88
2024/03/12 13:23:17;;;;;;;6.72;2.00;;;;;;;;;;5096175;28;20205;-89
2024/03/12 13:25:46;;;;;;;11.45;2.13;;;;;;;;;;5096291;28;20233;-89
2024/03/12 13:28:15;;;;;;;13.45;2.85;;;;;;;;;;5096001;28;20196;-89
2024/03/12 13:30:43;;;;;;;11.63;2.30;;;;;;;;;;5095964;28;20630;-88
2024/03/12 13:33:10;;;;;;;9.18;2.30;;;;;;;;;;5095713;28;20815;-88
2024/03/12 13:35:39;;;;;;;8.68;2.00;;;;;;;;;;5095634;28;20194;-89
2024/03/12 13:38:06;;;;;;;9.80;2.47;;;;;;;;;;5095234;28;20945;-88
2024/03/12 13:40:33;;;;;;;12.30;3.70;;;;;;;;;;5095555;28;20194;-89
2024/03/12 13:43:03;;;;;;;10.75;2.72;;;;;;;;;;5095717;28;20187;-88
2024/03/12 13:45:30;;;;;;;11.00;2.55;;;;;;;;;;5094863;28;20206;-88
2024/03/12 13:47:58;;;;;;;8.10;1.90;;;;;;;;;;5095314;28;20218;-89
2024/03/12 13:50:26;;;;;;;12.20;2.72;;;;;;;;;;5095128;28;20190;-88
2024/03/12 13:52:53;;;;;;;9.40;2.33;;;;;;;;;;5095495;28;20218;-88
2024/03/12 13:55:21;;;;;;;9.02;2.10;;;;;;;;;;5095584;28;20672;-89
2024/03/12 13:57:49;;;;;;;6.35;1.88;;;;;;;;;;5095464;28;20697;-88
2024/03/12 14:00:18;;;;;;;10.30;2.33;;;;;;;;;;5095372;28;20214;-89
2024/03/12 14:02:45;;;;;;;10.40;2.05;;;;;;;;;;5094920;28;20225;-89
2024/03/12 14:05:13;;;;;;;9.57;1.90;;;;;;;;;;5094788;28;20210;-89
2024/03/12 14:07:42;;;;;;;7.88;2.30;;;;;;;;;;5095061;28;20293;-88
2024/03/12 14:10:10;;;;;;;9.48;2.58;;;;;;;;;;5095304;28;20230;-88
2024/03/12 14:12:38;;;;;;;11.93;2.95;;;;;;;;;;5100861;28;20240;-89
2024/03/12 14:15:05;;;;;;;10.75;2.15;;;;;;;;;;5097412;28;20684;-88
2024/03/12 14:17:34;;;;;;;8.73;2.58;;;;;;;;;;5115337;28;20249;-88
2024/03/12 14:20:05;;;;;;;9.05;1.90;;;;;;;;;;5114919;28;20229;-88
2024/03/12 14:22:32;;;;;;;6.43;1.50;;;;;;;;;;5115304;28;20284;-89
2024/03/12 14:24:59;;;;;;;8.00;2.00;;;;;;;;;;5115121;28;20221;-88
2024/03/12 14:27:27;;;;;;;7.22;1.77;;;;;;;;;;5115172;28;20288;-88
2024/03/12 14:29:54;;;;;;;8.63;2.20;;;;;;;;;;5114841;28;20193;-87
2024/03/12 14:32:21;;;;;;;9.75;2.38;;;;;;;;;;5114633;28;20224;-88
2024/03/12 14:34:52;;;;;;;8.35;2.38;;;;;;;;;;5114567;28;20638;-89
2024/03/12 14:37:19;;;;;;;9.13;2.90;;;;;;;;;;5114433;28;20690;-88
2024/03/12 14:39:47;;;;;;;10.43;3.10;;;;;;;;;;5114248;28;20284;-88
2024/03/12 14:42:14;;;;;;;7.25;2.10;;;;;;;;;;5096383;28;20200;-89